Time;durP1;ratioP1;P1;durP2;ratioP2;P2;SDS_P1;SDS_P2;PMS_P1;PMS_P2;Temp;Humidity;BMP_temperature;BMP_pressure;BME280_temperature;BME280_humidity;BME280_pressure;Samples;Min_cycle;Max_cycle;Signal;HPM_P1;HPM_P2
2022/06/21 06:35:06;;;;;;;1.05;0.50;;;18.20;75.20;;;;;;2108655;27;20048;-88
2022/06/21 06:36:34;;;;;;;2.60;0.50;;;18.30;75.00;;;;;;2100744;28;20044;-87
2022/06/21 06:38:05;;;;;;;1.45;0.50;;;18.30;74.90;;;;;;2102368;28;20064;-87
2022/06/21 06:39:48;;;;;;;3.40;0.70;;;18.40;74.70;;;;;;2097826;28;20052;-87
2022/06/21 06:42:00;;;;;;;1.63;0.57;;;18.30;74.30;;;;;;2115178;28;20520;-90
2022/06/21 06:51:28;;;;;;;1.80;0.50;;;18.10;74.90;;;;;;2074370;28;20054;-92
2022/06/21 06:53:34;;;;;;;2.17;0.60;;;18.20;74.90;;;;;;2075573;28;20029;-90
2022/06/21 06:55:31;;;;;;;1.95;0.50;;;18.30;74.80;;;;;;2068276;28;20042;-89
2022/06/21 06:57:39;;;;;;;1.35;0.50;;;18.40;74.60;;;;;;2075996;28;20034;-91
2022/06/21 06:59:26;;;;;;;2.20;0.65;;;18.50;74.30;;;;;;2078568;28;20057;-89
2022/06/21 07:01:13;;;;;;;2.75;0.60;;;18.50;74.20;;;;;;2079255;28;20042;-89
2022/06/21 07:02:45;;;;;;;3.80;0.70;;;18.50;74.10;;;;;;2101382;28;20036;-89
2022/06/21 07:04:30;;;;;;;1.55;0.40;;;18.60;73.90;;;;;;2100573;28;20036;-89
2022/06/21 07:06:21;;;;;;;1.30;0.50;;;18.60;73.70;;;;;;2104557;28;20028;-89
2022/06/21 07:08:14;;;;;;;2.35;0.60;;;18.60;73.60;;;;;;2105610;28;20127;-91
2022/06/21 07:10:19;;;;;;;1.48;0.30;;;18.60;73.80;;;;;;2105935;28;20032;-91
2022/06/21 07:12:17;;;;;;;1.27;0.40;;;18.70;73.40;;;;;;2108656;28;20044;-90
2022/06/21 07:14:17;;;;;;;1.70;0.60;;;18.70;73.50;;;;;;2113963;28;20023;-91
2022/06/21 07:16:23;;;;;;;2.33;0.73;;;18.80;73.40;;;;;;2113052;28;20044;-91
2022/06/21 07:18:56;;;;;;;6.00;1.77;;;18.80;73.30;;;;;;2098169;28;20029;-91
2022/06/21 07:21:18;;;;;;;6.72;2.28;;;18.80;73.30;;;;;;2088472;28;20391;-91
2022/06/21 07:23:17;;;;;;;4.90;1.80;;;18.90;73.20;;;;;;2093500;28;20053;-89
2022/06/21 07:24:38;;;;;;;5.05;2.40;;;18.90;73.10;;;;;;2085760;28;20041;-90
2022/06/21 07:26:22;;;;;;;;;;;18.90;73.10;;;;;;2069034;28;20057;-89
2022/06/21 07:27:46;;;;;;;6.00;2.38;;;18.90;73.10;;;;;;2089007;28;19909;-89
2022/06/21 07:29:35;;;;;;;4.50;2.10;;;18.90;73.00;;;;;;2085680;28;20029;-89
2022/06/21 07:30:58;;;;;;;8.68;2.75;;;18.90;72.70;;;;;;2077998;28;20148;-90
2022/06/21 07:32:23;;;;;;;8.02;2.70;;;18.90;72.60;;;;;;2092432;28;20025;-89
2022/06/21 07:34:08;;;;;;;8.18;2.75;;;19.00;72.50;;;;;;2087601;28;20045;-89
2022/06/21 07:35:41;;;;;;;6.43;2.38;;;19.00;72.30;;;;;;2093557;28;20036;-89
2022/06/21 07:37:54;;;;;;;7.10;2.58;;;19.10;72.90;;;;;;2089278;28;20538;-91
2022/06/21 07:40:10;;;;;;;6.53;2.60;;;19.10;72.00;;;;;;2081129;28;20026;-91
2022/06/21 07:42:13;;;;;;;5.20;1.73;;;19.20;72.00;;;;;;2096046;28;20025;-90
2022/06/21 07:46:24;;;;;;;4.07;1.50;;;19.40;71.40;;;;;;2110169;28;20044;-88
2022/06/21 07:48:36;;;;;;;4.50;1.20;;;19.40;71.10;;;;;;2115127;28;20031;-91
2022/06/21 07:50:36;;;;;;;3.78;1.17;;;19.40;71.10;;;;;;2105485;28;20118;-89
2022/06/21 07:52:40;;;;;;;2.80;0.82;;;19.40;71.00;;;;;;2119364;28;20055;-91
2022/06/21 07:54:48;;;;;;;2.30;0.90;;;19.30;71.10;;;;;;2098204;28;20037;-89
2022/06/21 07:56:57;;;;;;;2.35;0.80;;;19.40;71.00;;;;;;2118222;28;20039;-90
2022/06/21 07:58:58;;;;;;;2.03;0.60;;;19.50;71.40;;;;;;2114923;28;20039;-90
2022/06/21 08:00:21;;;;;;;2.35;0.82;;;19.60;70.50;;;;;;2113679;28;20040;-91
2022/06/21 08:34:55;;;;;;;1.05;0.50;;;20.50;67.20;;;;;;2105790;28;20494;-88
2022/06/21 08:36:24;;;;;;;1.40;0.40;;;20.60;67.10;;;;;;2098589;28;20049;-88
2022/06/21 08:38:05;;;;;;;1.52;0.52;;;20.70;66.90;;;;;;2097028;28;20426;-89
2022/06/21 08:39:45;;;;;;;1.80;0.50;;;20.80;66.70;;;;;;2098112;28;20025;-89
2022/06/21 08:46:01;;;;;;;1.40;0.35;;;20.90;66.00;;;;;;2103221;28;20028;-90
2022/06/21 08:48:05;;;;;;;1.42;0.40;;;20.90;65.80;;;;;;2098953;28;20037;-89
2022/06/21 08:49:46;;;;;;;1.67;0.50;;;21.00;65.60;;;;;;2106334;28;20060;-90
2022/06/21 08:54:15;;;;;;;1.13;0.30;;;21.00;65.10;;;;;;2098855;28;20032;-92
2022/06/21 08:59:25;;;;;;;1.60;0.35;;;20.80;65.20;;;;;;2104555;28;20050;-90
2022/06/21 09:01:14;;;;;;;2.80;0.50;;;20.90;64.90;;;;;;2071554;28;20037;-90
2022/06/21 09:03:20;;;;;;;0.93;0.40;;;21.00;64.70;;;;;;2107370;28;20044;-90
2022/06/21 09:04:54;;;;;;;1.00;0.30;;;21.10;64.30;;;;;;2096360;28;20159;-90
2022/06/21 09:06:16;;;;;;;1.48;0.50;;;21.10;64.00;;;;;;2108378;28;20028;-89
2022/06/21 09:07:51;;;;;;;1.27;0.30;;;21.20;63.80;;;;;;2098751;28;20079;-88
2022/06/21 09:09:41;;;;;;;1.30;0.30;;;21.30;64.30;;;;;;2104931;28;20040;-90
2022/06/21 09:11:23;;;;;;;2.40;0.50;;;21.40;63.10;;;;;;2103238;28;20163;-88
2022/06/21 09:13:19;;;;;;;1.42;0.50;;;21.40;62.40;;;;;;2106328;28;20028;-89
2022/06/21 09:14:48;;;;;;;1.05;0.30;;;21.40;62.10;;;;;;2098812;28;20033;-90
2022/06/21 09:16:18;;;;;;;1.38;0.40;;;21.40;62.10;;;;;;2093842;28;20064;-92
2022/06/21 09:17:55;;;;;;;0.98;0.40;;;21.40;62.00;;;;;;2093871;28;20037;-91
2022/06/21 09:19:52;;;;;;;1.35;0.50;;;21.40;62.00;;;;;;2097676;28;20495;-90
2022/06/21 09:21:49;;;;;;;1.75;0.30;;;21.40;61.90;;;;;;2095781;28;20431;-89
2022/06/21 09:23:32;;;;;;;3.25;0.40;;;21.40;61.80;;;;;;2103045;28;20036;-90
2022/06/21 09:25:36;;;;;;;2.10;0.43;;;21.40;61.70;;;;;;2096744;28;20036;-89
2022/06/21 09:27:23;;;;;;;1.67;0.38;;;21.40;61.30;;;;;;2065803;28;20121;-90
2022/06/21 09:29:00;;;;;;;2.28;0.40;;;21.40;61.40;;;;;;2074956;28;20026;-89
2022/06/21 09:30:32;;;;;;;1.13;0.40;;;21.40;61.30;;;;;;2090742;28;20056;-90
2022/06/21 09:31:57;;;;;;;1.27;0.30;;;21.40;61.30;;;;;;2091266;28;20041;-90
2022/06/21 09:33:55;;;;;;;1.73;0.38;;;21.60;61.10;;;;;;2096457;28;20067;-91
2022/06/21 09:35:24;;;;;;;1.50;0.50;;;21.70;60.90;;;;;;2090967;28;20041;-91
2022/06/21 09:36:55;;;;;;;0.82;0.40;;;21.70;60.60;;;;;;2096619;28;20123;-90
2022/06/21 09:38:21;;;;;;;0.98;0.32;;;21.70;60.40;;;;;;2094965;28;20410;-92
2022/06/21 09:40:06;;;;;;;1.08;0.40;;;21.80;60.30;;;;;;2097374;28;20025;-90
2022/06/21 09:41:28;;;;;;;1.67;0.35;;;21.80;60.20;;;;;;2098403;28;20036;-90
2022/06/21 09:43:28;;;;;;;2.83;0.40;;;21.80;60.40;;;;;;2091732;28;20441;-90
2022/06/21 09:45:02;;;;;;;2.70;0.43;;;21.80;60.30;;;;;;2096178;28;20112;-90
2022/06/21 09:46:49;;;;;;;2.50;0.40;;;21.90;60.30;;;;;;2092273;28;20037;-90
2022/06/21 09:48:11;;;;;;;1.40;0.40;;;21.90;60.20;;;;;;2096472;28;20052;-88
2022/06/21 09:49:53;;;;;;;1.45;0.40;;;21.80;60.10;;;;;;2094997;28;20033;-88
2022/06/21 09:51:32;;;;;;;1.20;0.40;;;21.80;60.00;;;;;;2094747;28;20036;-88
2022/06/21 09:53:16;;;;;;;2.08;0.60;;;21.80;60.10;;;;;;2096948;28;20056;-89
2022/06/21 09:54:48;;;;;;;1.88;0.40;;;21.80;60.10;;;;;;2096476;28;20032;-89
2022/06/21 09:56:59;;;;;;;1.40;0.40;;;21.80;60.10;;;;;;2108015;28;20060;-89
2022/06/21 11:55:44;;;;;;;1.00;0.30;;;26.30;52.20;;;;;;2106789;28;20052;-92
2022/06/21 11:58:13;;;;;;;0.80;0.30;;;26.50;51.90;;;;;;2098972;28;20060;-90
2022/06/21 13:20:25;;;;;;;0.22;0.17;;;24.40;49.30;;;;;;2100025;28;20050;-88
2022/06/21 13:22:24;;;;;;;0.77;0.20;;;24.20;49.20;;;;;;2093015;28;20052;-88
2022/06/21 13:24:29;;;;;;;0.75;0.20;;;24.10;49.30;;;;;;2099891;28;20025;-89
2022/06/21 13:26:34;;;;;;;1.05;0.25;;;24.00;49.10;;;;;;2088086;28;20034;-88
2022/06/21 13:47:25;;;;;;;1.02;0.30;;;23.80;48.40;;;;;;2110441;28;20055;-89
2022/06/21 14:42:35;;;;;;;1.75;0.50;;;23.80;48.80;;;;;;2105739;28;20083;-88
2022/06/21 14:44:20;;;;;;;1.23;0.40;;;23.60;48.70;;;;;;2102018;28;20052;-88
2022/06/21 14:50:53;;;;;;;2.25;0.40;;;23.50;49.20;;;;;;2118485;27;20027;-88
2022/06/21 18:05:01;;;;;;;0.98;0.20;;;21.70;52.30;;;;;;2099315;28;20414;-89
2022/06/21 18:06:30;;;;;;;1.90;0.30;;;21.70;52.40;;;;;;2084723;28;20046;-90
2022/06/21 18:08:47;;;;;;;1.38;0.30;;;21.60;52.50;;;;;;2073907;28;20045;-91
2022/06/21 18:13:26;;;;;;;0.85;0.30;;;21.60;52.80;;;;;;2056695;28;20057;-91
2022/06/21 19:45:18;;;;;;;1.25;0.40;;;20.20;56.80;;;;;;2108995;28;20052;-88
2022/06/21 19:46:53;;;;;;;0.40;0.25;;;20.20;57.00;;;;;;2078026;28;20044;-88
2022/06/21 19:48:17;;;;;;;0.70;0.20;;;20.20;57.10;;;;;;2106331;28;20039;-89
2022/06/21 19:49:40;;;;;;;0.60;0.30;;;20.20;57.20;;;;;;2106473;28;20044;-89
2022/06/21 19:51:08;;;;;;;0.40;0.28;;;20.20;57.30;;;;;;2103875;28;20433;-88
2022/06/21 19:52:41;;;;;;;0.70;0.30;;;20.20;57.40;;;;;;2111943;28;20417;-89
2022/06/21 19:54:06;;;;;;;1.20;0.30;;;20.10;57.50;;;;;;2103102;28;20130;-89
2022/06/21 19:55:44;;;;;;;1.08;0.40;;;20.10;57.60;;;;;;2113905;27;20134;-90
2022/06/21 19:57:31;;;;;;;1.10;0.28;;;20.10;57.80;;;;;;2114349;28;20040;-89
2022/06/21 19:59:00;;;;;;;1.40;0.30;;;20.10;57.90;;;;;;2106546;28;20035;-89
2022/06/21 20:00:26;;;;;;;0.80;0.25;;;20.10;58.00;;;;;;2109311;28;20040;-89
2022/06/21 20:02:04;;;;;;;0.95;0.30;;;20.10;58.10;;;;;;2106374;28;20102;-90
2022/06/21 20:03:48;;;;;;;1.35;0.40;;;20.10;58.30;;;;;;2107441;28;20063;-89
2022/06/21 20:05:28;;;;;;;0.90;0.30;;;20.10;58.40;;;;;;2107232;28;20040;-89
2022/06/21 20:06:57;;;;;;;1.35;0.30;;;20.10;58.50;;;;;;2114565;28;20039;-89
2022/06/21 20:08:18;;;;;;;0.68;0.28;;;20.10;58.60;;;;;;2104980;28;20027;-89
2022/06/21 20:10:30;;;;;;;1.65;0.40;;;20.10;58.70;;;;;;2110780;28;20031;-89
2022/06/21 20:13:08;;;;;;;0.38;0.20;;;20.00;58.70;;;;;;2112693;28;20130;-89
2022/06/21 21:34:08;;;;;;;1.05;0.63;;;18.50;64.40;;;;;;2091598;28;20049;-90
2022/06/21 21:36:31;;;;;;;2.15;0.57;;;18.50;64.70;;;;;;2090671;28;20068;-91
2022/06/21 22:55:02;;;;;;;2.10;1.05;;;17.60;71.50;;;;;;2099586;28;20072;-91
2022/06/21 22:57:07;;;;;;;3.97;1.20;;;17.60;71.80;;;;;;2090872;28;20041;-91
2022/06/21 22:59:38;;;;;;;2.72;1.30;;;17.60;72.10;;;;;;2115131;28;20043;-91
2022/06/21 23:01:57;;;;;;;2.83;1.33;;;17.50;72.30;;;;;;2073620;28;20034;-89
2022/06/21 23:03:50;;;;;;;2.13;0.98;;;17.50;72.40;;;;;;2057271;28;20034;-91
2022/06/21 23:05:57;;;;;;;2.22;1.20;;;17.50;72.60;;;;;;2043024;29;20047;-91
2022/06/21 23:12:21;;;;;;;2.38;1.20;;;17.50;73.20;;;;;;2102025;28;20040;-90
2022/06/21 23:17:00;;;;;;;3.33;1.30;;;17.40;73.50;;;;;;2083423;28;20034;-89
2022/06/21 23:19:14;;;;;;;4.55;1.33;;;17.40;73.70;;;;;;2077019;28;20604;-90
2022/06/21 23:21:26;;;;;;;2.78;1.40;;;17.40;73.90;;;;;;2077096;28;20034;-90
2022/06/21 23:23:53;;;;;;;3.45;1.30;;;17.40;73.90;;;;;;2058717;28;20039;-90
